createdAt,value
2022-10-30T00:00:48.940Z,12.10
2022-10-30T00:03:16.210Z,12.10
2022-10-30T00:05:44.058Z,12.10
2022-10-30T00:08:12.146Z,12.20
2022-10-30T00:10:39.383Z,12.10
2022-10-30T00:13:06.401Z,12.10
2022-10-30T00:15:33.488Z,12.10
2022-10-30T00:18:00.911Z,12.20
2022-10-30T00:20:28.072Z,12.10
2022-10-30T00:22:55.191Z,12.20
2022-10-30T00:25:22.474Z,12.20
2022-10-30T00:27:49.391Z,12.10
2022-10-30T00:30:16.521Z,12.10
2022-10-30T00:32:43.943Z,12.10
2022-10-30T00:35:11.267Z,12.10
2022-10-30T00:37:39.319Z,12.10
2022-10-30T00:40:07.552Z,12.10
2022-10-30T00:42:34.539Z,12.20
2022-10-30T00:45:04.229Z,12.20
2022-10-30T00:47:39.369Z,12.20
2022-10-30T00:50:16.719Z,12.20
2022-10-30T00:52:54.771Z,12.20
2022-10-30T00:55:27.980Z,12.10
2022-10-30T00:57:54.978Z,12.20
2022-10-30T01:00:22.759Z,12.10
2022-10-30T01:02:49.802Z,12.10
2022-10-30T01:05:18.579Z,12.10
2022-10-30T01:07:47.212Z,12.10
2022-10-30T01:10:14.626Z,12.10
2022-10-30T01:12:42.452Z,12.20
2022-10-30T01:15:10.328Z,12.10
2022-10-30T01:18:21.634Z,12.10
2022-10-30T01:20:57.180Z,12.20
2022-10-30T01:23:33.314Z,12.10
2022-10-30T01:26:38.084Z,12.10
2022-10-30T01:29:24.361Z,12.10
2022-10-30T01:32:24.734Z,12.00
2022-10-30T01:35:10.348Z,12.00
2022-10-30T01:37:51.285Z,11.90
2022-10-30T01:40:18.952Z,11.90
2022-10-30T01:42:55.469Z,11.90
2022-10-30T01:45:51.991Z,11.90
2022-10-30T01:48:38.530Z,11.90
2022-10-30T01:51:35.735Z,11.90
2022-10-30T01:54:07.482Z,11.90
2022-10-30T01:57:03.122Z,11.90
2022-10-30T01:59:34.303Z,11.90
2022-10-30T02:02:01.481Z,11.90
2022-10-30T02:04:28.603Z,11.90
2022-10-30T02:06:55.646Z,11.90
2022-10-30T02:09:23.399Z,11.80
2022-10-30T02:11:51.372Z,11.90
2022-10-30T02:14:30.167Z,11.90
2022-10-30T02:16:57.987Z,11.90
2022-10-30T02:19:25.016Z,11.90
2022-10-30T02:21:52.196Z,11.90
2022-10-30T02:24:19.354Z,11.90
2022-10-30T02:26:46.778Z,11.90
2022-10-30T02:29:13.898Z,11.80
2022-10-30T02:31:42.117Z,11.80
2022-10-30T02:34:09.157Z,11.80
2022-10-30T02:36:36.147Z,11.80
2022-10-30T02:39:03.172Z,11.80
2022-10-30T02:41:30.223Z,11.80
2022-10-30T02:43:57.299Z,11.70
2022-10-30T02:46:24.515Z,11.70
2022-10-30T02:48:51.763Z,11.70
2022-10-30T02:51:18.692Z,11.70
2022-10-30T02:53:45.657Z,11.70
2022-10-30T02:56:13.928Z,11.70
2022-10-30T02:58:44.744Z,11.70
2022-10-30T03:01:14.156Z,11.70
2022-10-30T03:03:41.401Z,11.70
2022-10-30T03:06:09.892Z,11.70
2022-10-30T03:08:37.057Z,11.70
2022-10-30T03:11:13.426Z,11.70
2022-10-30T03:13:41.028Z,11.70
2022-10-30T03:16:12.244Z,11.60
2022-10-30T03:18:39.293Z,11.60
2022-10-30T03:21:12.044Z,11.60
2022-10-30T03:23:39.093Z,11.60
2022-10-30T03:26:06.335Z,11.60
2022-10-30T03:28:37.666Z,11.60
2022-10-30T03:31:06.475Z,11.50
2022-10-30T03:33:33.693Z,11.50
2022-10-30T03:36:00.901Z,11.50
2022-10-30T03:38:27.900Z,11.40
2022-10-30T03:40:54.939Z,11.50
2022-10-30T03:43:22.098Z,11.40
2022-10-30T03:45:50.182Z,11.40
2022-10-30T03:48:18.256Z,11.40
2022-10-30T03:50:45.940Z,11.30
2022-10-30T03:53:13.154Z,11.30
2022-10-30T03:55:40.191Z,11.30
2022-10-30T03:58:07.285Z,11.30
2022-10-30T04:00:34.965Z,11.40
2022-10-30T04:03:06.772Z,11.30
2022-10-30T04:05:33.835Z,11.30
2022-10-30T04:08:04.962Z,11.40
2022-10-30T04:10:35.761Z,11.40
2022-10-30T04:13:07.282Z,11.40
2022-10-30T04:15:37.038Z,11.40
2022-10-30T04:18:05.644Z,11.30
2022-10-30T04:20:32.949Z,11.40
2022-10-30T04:23:03.960Z,11.40
2022-10-30T04:25:31.900Z,11.40
2022-10-30T04:28:00.644Z,11.40
2022-10-30T04:30:31.352Z,11.40
2022-10-30T04:32:59.117Z,11.40
2022-10-30T04:35:29.711Z,11.40
2022-10-30T04:37:58.139Z,11.40
2022-10-30T04:40:28.043Z,11.40
2022-10-30T04:42:59.750Z,11.40
2022-10-30T04:45:27.456Z,11.40
2022-10-30T04:48:01.997Z,11.30
2022-10-30T04:50:31.636Z,11.30
2022-10-30T04:53:00.321Z,11.30
2022-10-30T04:55:28.359Z,11.30
2022-10-30T04:57:59.359Z,11.20
2022-10-30T05:00:27.069Z,11.30
2022-10-30T05:03:03.557Z,11.20
2022-10-30T05:05:31.071Z,11.20
2022-10-30T05:07:58.417Z,11.20
2022-10-30T05:10:25.589Z,11.20
2022-10-30T05:12:55.990Z,11.20
2022-10-30T05:15:23.778Z,11.20
2022-10-30T05:17:53.977Z,11.20
2022-10-30T05:20:21.429Z,11.20
2022-10-30T05:22:55.579Z,11.20
2022-10-30T05:25:22.949Z,11.30
2022-10-30T05:27:50.104Z,11.20
2022-10-30T05:30:18.924Z,11.10
2022-10-30T05:32:46.626Z,11.10
2022-10-30T05:35:13.725Z,11.20
2022-10-30T05:37:40.784Z,11.20
2022-10-30T05:40:08.297Z,11.20
2022-10-30T05:42:35.287Z,11.20
2022-10-30T05:45:05.002Z,11.20
2022-10-30T05:47:35.411Z,11.20
2022-10-30T05:50:03.593Z,11.20
2022-10-30T05:52:30.587Z,11.20
2022-10-30T05:54:59.504Z,11.30
2022-10-30T05:57:41.537Z,11.30
2022-10-30T06:00:09.220Z,11.30
2022-10-30T06:02:42.459Z,11.30
2022-10-30T06:05:09.657Z,11.30
2022-10-30T06:07:36.591Z,11.40
2022-10-30T06:10:04.631Z,11.50
2022-10-30T06:12:44.334Z,11.50
2022-10-30T06:15:31.004Z,11.60
2022-10-30T06:17:58.553Z,11.70
2022-10-30T06:20:55.901Z,11.70
2022-10-30T06:23:34.937Z,11.80
2022-10-30T06:26:06.355Z,11.90
2022-10-30T06:28:43.369Z,12.10
2022-10-30T06:31:12.251Z,12.20
2022-10-30T06:33:39.912Z,12.30
2022-10-30T06:36:07.624Z,12.40
2022-10-30T06:38:34.564Z,12.50
2022-10-30T06:41:01.753Z,12.60
2022-10-30T06:44:06.883Z,12.70
2022-10-30T06:46:36.642Z,12.70
2022-10-30T06:49:03.617Z,12.80
2022-10-30T06:51:31.924Z,12.90
2022-10-30T06:54:00.146Z,13.00
2022-10-30T06:56:39.278Z,13.10
2022-10-30T06:59:06.166Z,13.20
2022-10-30T07:01:46.053Z,13.20
2022-10-30T07:04:17.846Z,13.40
2022-10-30T07:06:45.053Z,13.50
2022-10-30T07:09:12.117Z,13.60
2022-10-30T07:11:42.250Z,13.70
2022-10-30T07:14:18.250Z,13.70
2022-10-30T07:16:57.223Z,13.90
2022-10-30T07:19:24.372Z,14.00
2022-10-30T07:21:52.708Z,14.10
2022-10-30T07:24:19.794Z,14.20
2022-10-30T07:27:05.470Z,14.20
2022-10-30T07:29:44.514Z,14.30
2022-10-30T07:32:34.886Z,14.50
2022-10-30T07:35:12.306Z,14.60
2022-10-30T07:38:08.249Z,14.70
2022-10-30T07:40:42.758Z,14.80
2022-10-30T07:43:21.075Z,14.80
2022-10-30T07:46:06.910Z,14.90
2022-10-30T07:48:57.275Z,15.00
2022-10-30T07:51:30.301Z,15.10
2022-10-30T07:53:57.224Z,15.20
2022-10-30T07:56:25.267Z,15.30
2022-10-30T07:58:52.412Z,15.30
2022-10-30T08:01:56.490Z,15.40
2022-10-30T08:04:33.270Z,15.50
2022-10-30T08:07:09.722Z,15.60
2022-10-30T08:09:36.680Z,15.70
2022-10-30T08:12:05.344Z,15.70
2022-10-30T08:14:32.515Z,15.80
2022-10-30T08:16:59.448Z,15.90
2022-10-30T08:19:26.613Z,15.90
2022-10-30T08:21:59.863Z,15.90
2022-10-30T08:24:27.384Z,16.00
2022-10-30T08:26:57.133Z,15.90
2022-10-30T08:29:27.062Z,16.00
2022-10-30T08:31:54.215Z,16.00
2022-10-30T08:34:24.415Z,16.00
2022-10-30T08:36:54.133Z,16.10
2022-10-30T08:39:21.270Z,16.20
2022-10-30T08:42:08.449Z,16.20
2022-10-30T08:44:42.534Z,16.20
2022-10-30T08:47:30.513Z,16.30
2022-10-30T08:49:57.546Z,16.30
2022-10-30T08:52:28.285Z,16.50
2022-10-30T08:54:56.791Z,16.60
2022-10-30T08:57:26.622Z,16.70
2022-10-30T08:59:55.768Z,16.70
2022-10-30T09:02:55.301Z,16.80
2022-10-30T09:05:45.324Z,16.80
2022-10-30T09:08:15.143Z,16.90
2022-10-30T09:11:05.304Z,16.90
2022-10-30T09:13:32.846Z,16.90
2022-10-30T09:16:01.573Z,16.90
2022-10-30T09:18:30.447Z,17.00
2022-10-30T09:20:57.924Z,16.90
2022-10-30T09:23:25.380Z,17.00
2022-10-30T09:26:01.155Z,17.00
2022-10-30T09:28:42.454Z,17.00
2022-10-30T09:31:44.745Z,17.10
2022-10-30T09:34:16.893Z,17.10
2022-10-30T09:36:54.436Z,17.20
2022-10-30T09:39:25.688Z,17.30
2022-10-30T09:42:13.477Z,17.30
2022-10-30T09:45:27.837Z,17.40
2022-10-30T09:48:33.749Z,17.50
2022-10-30T09:51:55.642Z,17.50
2022-10-30T09:54:56.244Z,17.60
2022-10-30T09:57:25.311Z,17.60
2022-10-30T10:00:18.503Z,17.70
2022-10-30T10:03:04.632Z,17.80
2022-10-30T10:05:59.504Z,17.80
2022-10-30T10:08:39.446Z,17.90
2022-10-30T10:11:27.446Z,17.90
2022-10-30T10:14:02.348Z,18.00
2022-10-30T10:16:30.808Z,18.10
2022-10-30T10:19:19.458Z,18.10
2022-10-30T10:21:57.489Z,18.20
2022-10-30T10:24:30.142Z,18.20
2022-10-30T10:27:27.857Z,18.20
2022-10-30T10:30:05.698Z,18.30
2022-10-30T10:32:56.065Z,18.20
2022-10-30T10:35:40.781Z,18.30
2022-10-30T10:38:32.474Z,18.30
2022-10-30T10:41:31.503Z,18.30
2022-10-30T10:44:30.454Z,18.30
2022-10-30T10:47:17.447Z,18.30
2022-10-30T10:49:54.516Z,18.30
2022-10-30T10:52:35.140Z,18.30
2022-10-30T10:55:16.369Z,18.30
2022-10-30T10:57:43.554Z,18.40
2022-10-30T11:00:18.731Z,18.40
2022-10-30T11:03:05.624Z,18.30
2022-10-30T11:06:04.430Z,18.40
2022-10-30T11:08:33.054Z,18.40
2022-10-30T11:11:01.449Z,18.30
2022-10-30T11:13:36.477Z,18.30
2022-10-30T11:16:22.710Z,18.40
2022-10-30T11:18:52.629Z,18.50
2022-10-30T11:21:21.705Z,18.40
2022-10-30T11:23:49.182Z,18.50
2022-10-30T11:26:19.284Z,18.50
2022-10-30T11:28:51.087Z,18.60
2022-10-30T11:31:27.574Z,18.60
2022-10-30T11:33:55.723Z,18.70
2022-10-30T11:36:24.013Z,18.70
2022-10-30T11:38:51.714Z,18.70
2022-10-30T11:41:18.664Z,18.70
2022-10-30T11:43:45.851Z,18.80
2022-10-30T11:46:20.059Z,18.80
2022-10-30T11:48:47.162Z,18.80
2022-10-30T11:51:14.268Z,18.90
2022-10-30T11:53:48.667Z,18.90
2022-10-30T11:56:22.422Z,19.00
2022-10-30T11:58:53.745Z,19.00
2022-10-30T12:01:24.440Z,19.10
2022-10-30T12:03:51.541Z,19.00
2022-10-30T12:06:25.224Z,19.10
2022-10-30T12:09:01.551Z,19.10
2022-10-30T12:11:32.889Z,19.20
2022-10-30T12:13:59.928Z,19.20
2022-10-30T12:16:26.919Z,19.20
2022-10-30T12:18:58.251Z,19.20
2022-10-30T12:21:26.428Z,19.20
2022-10-30T12:24:00.151Z,19.20
2022-10-30T12:26:27.073Z,19.20
2022-10-30T12:28:57.951Z,19.20
2022-10-30T12:31:34.687Z,19.20
2022-10-30T12:34:39.256Z,19.20
2022-10-30T12:37:18.425Z,19.30
2022-10-30T12:40:00.419Z,19.20
2022-10-30T12:42:27.460Z,19.30
2022-10-30T12:45:14.977Z,19.30
2022-10-30T12:47:45.602Z,19.30
2022-10-30T12:50:27.930Z,19.30
2022-10-30T12:53:01.756Z,19.30
2022-10-30T12:55:35.798Z,19.30
2022-10-30T12:58:15.524Z,19.20
2022-10-30T13:01:08.716Z,19.30
2022-10-30T13:03:51.039Z,19.30
2022-10-30T13:06:21.089Z,19.30
2022-10-30T13:09:03.091Z,19.20
2022-10-30T13:11:40.265Z,19.30
2022-10-30T13:14:28.434Z,19.30
2022-10-30T13:16:55.389Z,19.20
2022-10-30T13:19:22.339Z,19.20
2022-10-30T13:22:13.027Z,19.20
2022-10-30T13:24:51.134Z,19.20
2022-10-30T13:27:42.045Z,19.30
2022-10-30T13:30:16.149Z,19.30
2022-10-30T13:33:15.101Z,19.20
2022-10-30T13:36:11.109Z,19.20
2022-10-30T13:38:50.850Z,19.20
2022-10-30T13:41:33.766Z,19.20
2022-10-30T13:44:09.598Z,19.20
2022-10-30T13:46:45.606Z,19.20
2022-10-30T13:49:42.770Z,19.20
2022-10-30T13:52:17.079Z,19.20
2022-10-30T13:54:59.979Z,19.20
2022-10-30T13:57:50.060Z,19.20
2022-10-30T14:00:21.922Z,19.30
2022-10-30T14:03:23.283Z,19.20
2022-10-30T14:06:13.733Z,19.30
2022-10-30T14:08:55.154Z,19.20
2022-10-30T14:11:22.249Z,19.20
2022-10-30T14:14:04.086Z,19.20
2022-10-30T14:16:32.766Z,19.20
2022-10-30T14:19:03.710Z,19.10
2022-10-30T14:21:32.034Z,19.10
2022-10-30T14:24:11.216Z,19.00
2022-10-30T14:26:38.355Z,19.10
2022-10-30T14:29:33.546Z,19.00
2022-10-30T14:32:23.842Z,19.00
2022-10-30T14:34:51.018Z,19.00
2022-10-30T14:37:26.885Z,18.90
2022-10-30T14:39:54.752Z,18.90
2022-10-30T14:42:34.975Z,18.80
2022-10-30T14:45:24.651Z,18.80
2022-10-30T14:48:18.714Z,18.80
2022-10-30T14:50:54.695Z,18.70
2022-10-30T14:53:40.821Z,18.60
2022-10-30T14:59:21.254Z,18.50
2022-10-30T15:02:02.443Z,18.50
2022-10-30T15:04:50.246Z,18.40
2022-10-30T15:07:17.173Z,18.40
2022-10-30T15:09:53.277Z,18.30
2022-10-30T15:12:41.928Z,18.30
2022-10-30T15:15:14.208Z,18.20
2022-10-30T15:17:42.664Z,18.10
2022-10-30T15:20:25.458Z,18.00
2022-10-30T15:22:54.433Z,18.00
2022-10-30T15:25:23.357Z,17.90
2022-10-30T15:27:54.791Z,17.90
2022-10-30T15:30:23.928Z,17.90
2022-10-30T15:32:51.240Z,17.80
2022-10-30T15:35:20.051Z,17.80
2022-10-30T15:38:06.808Z,17.70
2022-10-30T15:40:34.638Z,17.70
2022-10-30T15:43:02.165Z,17.50
2022-10-30T15:45:36.612Z,17.50
2022-10-30T15:48:23.221Z,17.50
2022-10-30T15:51:01.283Z,17.40
2022-10-30T15:53:34.629Z,17.30
2022-10-30T15:56:01.594Z,17.30
2022-10-30T15:58:29.596Z,17.20
2022-10-30T16:01:00.731Z,17.20
2022-10-30T16:03:28.295Z,17.10
2022-10-30T16:06:15.869Z,17.00
2022-10-30T16:08:45.751Z,17.00
2022-10-30T16:11:13.032Z,16.90
2022-10-30T16:13:40.033Z,16.80
2022-10-30T16:16:11.962Z,16.70
2022-10-30T16:18:38.985Z,16.70
2022-10-30T16:21:07.138Z,16.70
2022-10-30T16:23:41.595Z,16.60
2022-10-30T16:26:21.118Z,16.60
2022-10-30T16:28:48.131Z,16.50
2022-10-30T16:31:16.077Z,16.40
2022-10-30T16:33:44.609Z,16.40
2022-10-30T16:36:16.999Z,16.30
2022-10-30T16:38:46.321Z,16.30
2022-10-30T16:41:13.765Z,16.20
2022-10-30T16:43:41.646Z,16.20
2022-10-30T16:46:14.897Z,16.10
2022-10-30T16:48:46.666Z,16.10
2022-10-30T16:51:15.695Z,16.00
2022-10-30T16:53:50.623Z,16.00
2022-10-30T16:56:37.903Z,15.90
2022-10-30T16:59:14.338Z,15.90
2022-10-30T17:01:41.708Z,15.90
2022-10-30T17:06:45.851Z,15.80
2022-10-30T17:09:26.563Z,15.80
2022-10-30T17:12:20.936Z,15.80
2022-10-30T17:15:10.444Z,15.80
2022-10-30T17:17:39.254Z,15.70
2022-10-30T17:20:32.663Z,15.70
2022-10-30T17:23:12.249Z,15.70
2022-10-30T17:25:39.496Z,15.70
2022-10-30T17:28:06.874Z,15.60
2022-10-30T17:30:41.165Z,15.60
2022-10-30T17:33:35.230Z,15.60
2022-10-30T17:36:06.083Z,15.60
2022-10-30T17:38:33.166Z,15.50
2022-10-30T17:41:00.230Z,15.50
2022-10-30T17:43:29.670Z,15.50
2022-10-30T17:45:57.049Z,15.40
2022-10-30T17:48:25.728Z,15.40
2022-10-30T17:50:52.716Z,15.30
2022-10-30T17:53:23.924Z,15.30
2022-10-30T17:55:58.809Z,15.30
2022-10-30T17:58:25.808Z,15.20
2022-10-30T18:00:52.789Z,15.20
2022-10-30T18:03:20.435Z,15.20
2022-10-30T18:05:47.345Z,15.20
2022-10-30T18:08:14.306Z,15.10
2022-10-30T18:10:41.245Z,15.10
2022-10-30T18:13:11.396Z,15.10
2022-10-30T18:15:40.877Z,15.10
2022-10-30T18:18:07.846Z,15.00
2022-10-30T18:20:35.079Z,15.00
2022-10-30T18:23:02.677Z,14.90
2022-10-30T18:25:34.830Z,14.90
2022-10-30T18:28:02.225Z,14.90
2022-10-30T18:30:29.458Z,14.80
2022-10-30T18:32:56.886Z,14.80
2022-10-30T18:35:36.451Z,14.80
2022-10-30T18:38:03.598Z,14.80
2022-10-30T18:40:30.577Z,14.70
2022-10-30T18:42:57.978Z,14.70
2022-10-30T18:45:35.766Z,14.70
2022-10-30T18:48:03.271Z,14.80
2022-10-30T18:50:30.612Z,14.70
2022-10-30T18:52:58.200Z,14.70
2022-10-30T18:55:34.729Z,14.70
2022-10-30T18:58:01.968Z,14.70
2022-10-30T19:00:44.951Z,14.70
2022-10-30T19:03:18.203Z,14.70
2022-10-30T19:05:49.669Z,14.60
2022-10-30T19:08:19.247Z,14.60
2022-10-30T19:10:46.628Z,14.60
2022-10-30T19:13:20.343Z,14.60
2022-10-30T19:15:59.014Z,14.60
2022-10-30T19:18:28.434Z,14.60
2022-10-30T19:21:04.440Z,14.60
2022-10-30T19:23:32.650Z,14.50
2022-10-30T19:25:59.810Z,14.50
2022-10-30T19:28:29.257Z,14.50
2022-10-30T19:30:57.226Z,14.50
2022-10-30T19:33:24.402Z,14.40
2022-10-30T19:36:01.697Z,14.40
2022-10-30T19:38:28.899Z,14.40
2022-10-30T19:40:59.524Z,14.40
2022-10-30T19:43:26.512Z,14.40
2022-10-30T19:45:57.145Z,14.40
2022-10-30T19:48:55.629Z,14.40
2022-10-30T19:51:14.545Z,14.40
2022-10-30T19:53:41.583Z,14.40
2022-10-30T19:56:10.822Z,14.30
2022-10-30T19:58:43.387Z,14.30
2022-10-30T20:01:14.512Z,14.30
2022-10-30T20:03:43.624Z,14.40
2022-10-30T20:06:13.582Z,14.30
2022-10-30T20:08:41.538Z,14.30
2022-10-30T20:11:09.879Z,14.30
2022-10-30T20:13:38.062Z,14.30
2022-10-30T20:16:06.382Z,14.30
2022-10-30T20:18:34.365Z,14.20
2022-10-30T20:21:05.123Z,14.20
2022-10-30T20:23:35.098Z,14.20
2022-10-30T20:26:24.352Z,14.20
2022-10-30T20:28:56.051Z,14.20
2022-10-30T20:31:47.929Z,14.10
2022-10-30T20:34:15.605Z,14.10
2022-10-30T20:36:43.116Z,14.00
2022-10-30T20:39:11.467Z,14.00
2022-10-30T20:41:44.580Z,13.90
2022-10-30T20:44:35.237Z,13.90
2022-10-30T20:47:02.244Z,13.80
2022-10-30T20:49:29.207Z,13.80
2022-10-30T20:54:42.179Z,13.70
2022-10-30T20:57:09.249Z,13.70
2022-10-30T20:59:36.240Z,13.70
2022-10-30T21:02:03.313Z,13.70
2022-10-30T21:04:30.383Z,13.60
2022-10-30T21:06:57.404Z,13.60
2022-10-30T21:09:24.375Z,13.50
2022-10-30T21:11:52.902Z,13.50
2022-10-30T21:14:19.972Z,13.50
2022-10-30T21:16:47.528Z,13.50
2022-10-30T21:19:14.652Z,13.40
2022-10-30T21:21:41.629Z,13.40
2022-10-30T21:24:08.726Z,13.30
2022-10-30T21:26:37.747Z,13.30
2022-10-30T21:29:05.388Z,13.30
2022-10-30T21:31:32.412Z,13.20
2022-10-30T21:33:59.629Z,13.10
2022-10-30T21:36:26.737Z,13.20
2022-10-30T21:38:53.750Z,13.10
2022-10-30T21:41:24.917Z,13.00
2022-10-30T21:43:53.326Z,13.00
2022-10-30T21:46:20.961Z,13.00
2022-10-30T21:48:48.015Z,12.90
2022-10-30T21:51:18.740Z,12.90
2022-10-30T21:53:45.859Z,12.90
2022-10-30T21:56:20.383Z,12.90
2022-10-30T21:58:48.691Z,12.90
2022-10-30T22:01:27.314Z,12.80
2022-10-30T22:03:54.683Z,12.80
2022-10-30T22:06:22.517Z,12.80
2022-10-30T22:08:53.143Z,12.80
2022-10-30T22:11:20.399Z,12.80
2022-10-30T22:13:47.443Z,12.80
2022-10-30T22:16:14.723Z,12.80
2022-10-30T22:18:41.709Z,12.80
2022-10-30T22:21:10.570Z,12.80
2022-10-30T22:23:38.442Z,12.80
2022-10-30T22:26:07.821Z,12.80
2022-10-30T22:28:34.956Z,12.80
2022-10-30T22:31:06.453Z,12.80
2022-10-30T22:33:33.682Z,12.70
2022-10-30T22:36:23.114Z,12.70
2022-10-30T22:38:58.343Z,12.70
2022-10-30T22:41:25.486Z,12.70
2022-10-30T22:43:54.863Z,12.60
2022-10-30T22:46:23.258Z,12.70
2022-10-30T22:48:50.335Z,12.60
2022-10-30T22:51:17.742Z,12.60
2022-10-30T22:53:46.384Z,12.60
2022-10-30T22:56:22.405Z,12.60
2022-10-30T22:58:49.840Z,12.60
2022-10-30T23:01:18.548Z,12.60
2022-10-30T23:03:45.671Z,12.60
2022-10-30T23:06:13.101Z,12.60
2022-10-30T23:08:40.053Z,12.50
2022-10-30T23:11:07.292Z,12.60
2022-10-30T23:13:35.031Z,12.50
2022-10-30T23:16:19.524Z,12.60
2022-10-30T23:18:47.486Z,12.60
2022-10-30T23:21:20.660Z,12.60
2022-10-30T23:23:47.716Z,12.70
2022-10-30T23:26:19.318Z,12.70
2022-10-30T23:28:46.688Z,12.70
2022-10-30T23:31:19.957Z,12.70
2022-10-30T23:33:50.908Z,12.70
2022-10-30T23:36:17.863Z,12.70
2022-10-30T23:38:44.858Z,12.70
2022-10-30T23:41:11.806Z,12.70
2022-10-30T23:43:38.798Z,12.70
2022-10-30T23:46:06.028Z,12.70
2022-10-30T23:48:33.064Z,12.70
2022-10-30T23:51:05.173Z,12.70
2022-10-30T23:53:32.049Z,12.70
2022-10-30T23:55:59.006Z,12.70
2022-10-30T23:58:25.971Z,12.70
